Tiempo atmosférico en la estación meteorológica de Águilas, Murcia (26 m.)



Fecha
DESCASC
Temp. máxima en grados centígrados (hora)
DESCASC
Temp. mínima en grados centígrados (hora)
DESCASC
Temp. media en grados centígrados
DESCASC
Racha de viento máxima en m/sg (hora)
DESCASC
Velocidad máxima media en intervalos de 10 minutos(hora)
DESCASC
Precipitaciones diarias en mm
DESCASC
Precipitaciones de 00:00 a 06:00 en mm
DESCASC
Precipitaciones de 06:00 a 12:00 en mm
DESCASC
Precipitaciones de 12:00 a 18:00 en mm
DESCASC
Precipitaciones de 18:00 a 24:00 en mm
DESCASC
09-05-2018 22.9 (14:10) 16.8 (00:00) 19.8 10 (21:20) 5.83 (21:20) 1 0 0 0 1
23-05-2018 27.3 (16:10) 16.3 (00:00) 21.8 9.17 (13:40) 6.11 (13:40) 0 0 0 0 0
22-05-2018 23.7 (12:30) 15.9 (00:00) 19.8 6.11 (14:00) 3.89 (13:50) 0 0 0 0 0
21-05-2018 22.5 (17:30) 15.2 (00:00) 18.8 6.94 (15:30) 3.89 (11:50) 0 0 0 0 0
20-05-2018 21.5 (14:50) 15.4 (00:00) 18.4 6.67 (16:20) 3.61 (13:40) 0 0 0 0 0
19-05-2018 22.3 (13:50) 15.4 (00:00) 18.8 9.17 (13:00) 6.39 (13:00) 0 0 0 0 0
18-05-2018 22.4 (13:50) 14.8 (00:00) 18.6 8.33 (14:00) 4.44 (14:20) 0 0 0 0 0
17-05-2018 24 (14:20) 17.2 (00:00) 20.6 13.33 (13:30) 7.78 (13:10) 0 0 0 0 0
16-05-2018 23.9 (12:00) 14 (00:00) 18.9 12.22 (17:10) 7.22 (12:30) 0 0 0 0 0
15-05-2018 22.3 (12:00) 14 (00:00) 18.1 9.72 (13:30) 6.67 (12:20) 0 0 0 0 0
14-05-2018 22 (12:10) 12.8 (00:00) 17.4 6.11 (18:20) 3.33 (18:20) 0 0 0 0 0
13-05-2018 23.2 (00:00) 16.7 (00:00) 20 15.83 (01:30) 7.22 (01:30) 0 0 0 0 0
12-05-2018 24.5 (22:30) 16.8 (00:00) 20.6 13.61 (23:20) 7.22 (23:20) 0 0 0 0 0
11-05-2018 22.2 (11:10) 15.6 (07:10) 18.9 7.5 (11:40) 4.17 (11:30) 0 0 0 0 0
10-05-2018 26.1 (12:50) 17.3 (00:00) 21.7 10.28 (15:50) 6.39 (16:30) 10.8 0 0 7.8 3
24-04-2018 27.2 (16:10) 21.9 (00:00) 24.6 20 (12:50) 10.83 (12:20) 0 0 0 0 0
08-05-2018 22.3 (16:50) 15 (00:00) 18.6 5.83 (15:30) 3.33 (13:40) 2.2 0 0 0 2.2
07-05-2018 22.5 (13:20) 15.2 (00:00) 18.8 9.17 (13:40) 5.56 (18:20) 0 0 0 0 0
06-05-2018 21 (17:00) 14.6 (00:00) 17.8 9.17 (14:20) 5.56 (15:00) 0 0 0 0 0
05-05-2018 20.7 (09:00) 16 (00:00) 18.4 6.94 (11:10) 3.61 (11:30) 0 0 0 0 0
04-05-2018 20.6 (00:20) 16.2 (00:00) 18.4 8.33 (16:20) 5.28 (16:10) 0.4 0.4 0 0 0
03-05-2018 25.3 (12:10) 14.7 (00:00) 20 11.11 (17:00) 5.83 (09:50) 0 0 0 0 0
02-05-2018 22.2 (11:50) 10.9 (00:00) 16.6 10.28 (17:20) 5.28 (18:00) 0 0 0 0 0
01-05-2018 18.9 (17:30) 10.9 (07:00) 14.9 14.17 (18:30) 7.22 (18:30) 0 0 0 0 0
30-04-2018 19.9 (17:00) 12 (00:00) 15.9 13.33 (21:20) 6.39 (21:30) 0 0 0 0 0
29-04-2018 24.1 (16:20) 15.2 (00:00) 19.7 18.89 (13:40) 10.28 (14:00) 0 0 0 0 0
28-04-2018 24.1 (17:30) 15.5 (00:00) 19.8 12.78 (21:10) 6.67 (21:10) 0 0 0 0 0
27-04-2018 24.4 (17:50) 14.1 (00:00) 19.3 7.22 (18:30) 3.89 (18:30) 0 0 0 0 0
26-04-2018 20.9 (17:10) 15.8 (00:00) 18.3 7.22 (17:30) 4.72 (17:30) 3.4 0.2 3.2 0 0
25-04-2018 22.9 (18:40) 15.9 (00:00) 19.4 15 (02:30) 7.5 (02:30) 9 0 7 2 0

Gráficas

Temp. máximas Temp. mínimas Temp. medias Precipitaciones Rachas de viento máximas Velocidades máximas media en intervalos de 10 minutos

Datos horarios

Fecha y hora oficial Temperatura (ºC) Velocidad del viento (km/h) Dirección del viento Racha (km/h) Dirección de racha Precipitación (mm) Presión (hPa) Tendencia (hPa) Humedad (%)
2018-05-23 23:00:00 22.2 9 Este 13 Este 0 1012.8 1.8 39
2018-05-23 22:00:00 23.1 8 Este 14 Nordeste 0 1011.7 0.5 31
2018-05-23 21:00:00 23 10 Este 28 Este 0 1011.4 -0.2 41
2018-05-23 20:00:00 23.8 17 Este 32 Este 0 1011 -0.9 38
2018-05-23 19:00:00 25.3 18 Este 32 Este 0 1011.2 -1 30
2018-05-23 18:00:00 26.1 18 Sudeste 32 Este 0 1011.6 -1.2 24
2018-05-23 17:00:00 26.3 19 Este 31 Sudeste 0 1011.9 -1.2 22
2018-05-23 16:00:00 26.8 18 Sudeste 27 Este 0 1012.2 -1.1 22
2018-05-23 15:00:00 26 15 Sudeste 27 Este 0 1012.8 -0.6 32
2018-05-23 14:00:00 24.4 17 Sudeste 33 Sudeste 0 1013.1 -0.1 37
2018-05-23 13:00:00 24.9 21 Sudeste 30 Sudeste 0 1013.3 0.2 30
2018-05-23 12:00:00 24.4 17 Sudeste 28 Sudeste 0 1013.4 0.1 37
2018-05-23 11:00:00 24.3 10 Sudeste 22 Sudeste 0 1013.2 0.1 39
2018-05-23 10:00:00 23.7 4 Sudeste 12 Sudeste 0 1013.1 0.8 48
2018-05-23 09:00:00 20.9 3 Este 6 Este 0 1013.3 1.2 62
2018-05-23 08:00:00 17.3 3 Norte 10 Norte 0 1013.1 0.9 69
2018-05-23 07:00:00 17 0 Calma 8 Nordeste 0 1012.3 0.2 74
2018-05-23 06:00:00 16.7 3 Nordeste 7 Nordeste 0 1012.1 -0.4 69
2018-05-23 05:00:00 16.5 2 Este 5 Nordeste 0 1012.2 -0.5 72
2018-05-23 04:00:00 17.4 2 Norte 9 Nordeste 0 1012.1 -0.4 71
2018-05-23 03:00:00 17.8 3 Nordeste 6 Nordeste 0 1012.5 0 72
2018-05-23 02:00:00 18.2 4 Nordeste 7 Norte 0 1012.7 0.4 74
2018-05-23 01:00:00 18.3 2 Sur 7 Este 0 1012.5 1.1 74
2018-05-23 00:00:00 19 5 Este 8 Este 0 1012.5 1.6 73
2018-05-22 23:00:00 19.5 4 Este 10 Sudeste 0 1012.3 1.8 71
2018-05-22 22:00:00 20.2 6 Sudeste 9 Sudeste 0 1011.4 1 64
2018-05-22 21:00:00 21.7 3 Sur 9 Noroeste 0 1010.9 0.3 55
2018-05-22 20:00:00 22.1 6 Sudeste 14 Sur 0 1010.5 -0.1 54
2018-05-22 19:00:00 23.3 5 Sur 15 Sudoeste 0 1010.4 -0.4 47
2018-05-22 18:00:00 22.7 6 Sudoeste 19 Sudoeste 0 1010.6 -0.4 56
2018-05-22 17:00:00 22.3 10 Sur 20 Sudoeste 0 1010.6 -0.4 56
2018-05-22 16:00:00 22.5 13 Sur 21 Sur 0 1010.8 -0.1 57
2018-05-22 15:00:00 23.2 11 Sur 22 Sur 0 1011 -0.1 50
2018-05-22 14:00:00 22.7 12 Sur 22 Sur 0 1011 -0.2 58
2018-05-22 13:00:00 23.3 9 Sur 18 Sur 0 1010.9 0 44
2018-05-22 12:00:00 23.4 9 Sur 15 Sur 0 1011.1 0.7 42
2018-05-22 11:00:00 21.5 7 Sur 15 Sur 0 1011.2 1.2 64
2018-05-22 10:00:00 21.3 6 Sudeste 12 Sudeste 0 1010.9 1.3 66
2018-05-22 09:00:00 20.8 2 Sur 12 Nordeste 0 1010.4 1.4 68
2018-05-22 08:00:00 18.5 3 Nordeste 9 Norte 0 1010 1.2 73
2018-05-22 07:00:00 16.9 5 Nordeste 9 Nordeste 0 1009.6 0.6 72
2018-05-22 06:00:00 16 3 Este 5 Noroeste 0 1009 -0.2 68
2018-05-22 05:00:00 16.6 5 Norte 8 Norte 0 1008.8 -0.5 63
2018-05-22 04:00:00 16.5 5 Norte 8 Norte 0 1009 -0.2 64
2018-05-22 03:00:00 17.2 2 Norte 7 Nordeste 0 1009.2 0 63
2018-05-22 02:00:00 17.5 2 Noroeste 9 Noroeste 0 1009.3 0.1 65
2018-05-22 01:00:00 17.3 5 Noroeste 9 Este 0 1009.2 0.5 68
2018-05-22 00:00:00 18.3 4 Este 7 Este 0 1009.2 0.7 69
2018-05-21 23:00:00 18.8 4 Este 9 Este 0 1009.2 1 70
2018-05-21 22:00:00 19.1 3 Norte 9 Sur 0 1008.7 0.7 70
2018-05-21 21:00:00 19.7 3 Sudoeste 15 Sudoeste 0 1008.5 0.5 68
2018-05-21 20:00:00 20.7 6 Sudoeste 14 Sudoeste 0 1008.2 0 67
2018-05-21 19:00:00 20.5 6 Sudoeste 18 Sur 0 1008 -0.5 64
2018-05-21 18:00:00 21.2 10 Sur 19 Sur 0 1008 -0.7 61
2018-05-21 17:00:00 22 9 Sudoeste 23 Sur 0 1008.2 -0.8 60
2018-05-21 16:00:00 21.6 10 Sur 25 Sudoeste 0 1008.5 -0.8 59
2018-05-21 15:00:00 21.7 11 Sur 23 Sudoeste 0 1008.7 -0.7 57
2018-05-21 14:00:00 21.2 13 Sur 24 Sur 0 1009 -0.4 56
2018-05-21 13:00:00 21.4 12 Sur 22 Sudoeste 0 1009.3 -0.2 56
2018-05-21 12:00:00 20.6 12 Sur 22 Sur 0 1009.4 -0.2 57
2018-05-21 11:00:00 20.5 10 Sur 18 Sur 0 1009.4 0 59
2018-05-21 10:00:00 20.4 6 Sudoeste 13 Noroeste 0 1009.5 0.4 58
2018-05-21 09:00:00 19.1 8 Noroeste 14 Noroeste 0 1009.6 0.7 66
2018-05-21 08:00:00 17.1 3 Norte 6 Sudeste 0 1009.4 0.7 75
2018-05-21 07:00:00 16.1 3 Norte 6 Norte 0 1009.1 0.1 76
2018-05-21 06:00:00 15.9 0 Calma 6 Norte 0 1008.9 -0.2 74
2018-05-21 05:00:00 15.4 0 Calma 9 Nordeste 0 1008.7 -0.8 74
2018-05-21 04:00:00 15.7 0 Calma 8 Nordeste 0 1009 -0.8 71
2018-05-21 03:00:00 16.6 4 Nordeste 7 Nordeste 0 1009.1 -0.9 68
2018-05-21 02:00:00 16.8 4 Nordeste 6 Norte 0 1009.5 -0.5 72
2018-05-21 01:00:00 17.2 2 Este 6 Este 0 1009.8 0 72
2018-05-21 00:00:00 17.7 5 Este 8 Este 0 1010 0.4 71
2018-05-20 23:00:00 17.9 2 Sudoeste 8 Oeste 0 1010 0.8 71
2018-05-20 22:00:00 18.3 3 Oeste 9 Oeste 0 1009.8 0.6 69
2018-05-20 21:00:00 18.9 4 Sudoeste 14 Sudoeste 0 1009.6 0.2 66
2018-05-20 20:00:00 20.1 8 Sur 15 Sur 0 1009.2 -0.6 61
2018-05-20 19:00:00 20.6 7 Sudoeste 18 Sudoeste 0 1009.2 -1 60
2018-05-20 18:00:00 21 8 Sur 20 Sudoeste 0 1009.4 -1.4 60
2018-05-20 17:00:00 20.2 9 Sudeste 24 Sudoeste 0 1009.8 -1.3 62
2018-05-20 16:00:00 21 10 Sudeste 22 Sudeste 0 1010.2 -1.5 58
2018-05-20 15:00:00 20.8 13 Sudeste 22 Sudoeste 0 1010.8 -0.9 59
2018-05-20 14:00:00 20.9 12 Sur 22 Sur 0 1011.1 -0.6 60
2018-05-20 13:00:00 19.9 10 Sur 21 Sur 0 1011.7 -0.1 63
2018-05-20 12:00:00 20.2 10 Sur 19 Sudeste 0 1011.7 0 64
2018-05-20 11:00:00 20.6 9 Sur 14 Sudoeste 0 1011.7 0.2 61
2018-05-20 10:00:00 19.9 6 Sudeste 15 Sudeste 0 1011.8 0.6 66
2018-05-20 09:00:00 18.8 4 Sur 8 Sudoeste 0 1011.7 0.7 72
2018-05-20 08:00:00 16.9 3 Norte 10 Norte 0 1011.5 0.4 75
2018-05-20 07:00:00 15.5 3 Nordeste 9 Nordeste 0 1011.2 -0.1 75
2018-05-20 06:00:00 15.4 3 Nordeste 7 Nordeste 0 1011 -0.7 76
2018-05-20 05:00:00 16.1 4 Norte 9 Nordeste 0 1011.1 -1.2 77
2018-05-20 04:00:00 16.4 5 Nordeste 9 Nordeste 0 1011.3 -1.6 78
2018-05-20 03:00:00 15.7 0 Calma 7 Noroeste 0 1011.7 -1.4 77
2018-05-20 02:00:00 16.4 4 Noroeste 7 Noroeste 0 1012.3 -0.3 78
2018-05-20 01:00:00 17.3 3 Noroeste 7 Noroeste 0 1012.9 0.9 78
2018-05-20 00:00:00 17.5 2 Este 7 Sudeste 0 1013.1 1.3 78
2018-05-19 23:00:00 17.8 3 Sudeste 11 Sudeste 0 1012.6 1.1 76
2018-05-19 22:00:00 18.2 5 Sudeste 10 Sudeste 0 1012 0.3 72
2018-05-19 21:00:00 19.2 6 Sudoeste 10 Sudoeste 0 1011.8 0 66
2018-05-19 20:00:00 20.2 4 Sudoeste 13 Sur 0 1011.5 -0.4 65
2018-05-19 19:00:00 19.9 7 Sur 18 Sur 0 1011.7 -0.6 67
2018-05-19 18:00:00 20.5 10 Sur 23 Sudeste 0 1011.8 -0.6 64
2018-05-19 17:00:00 20.7 13 Sur 26 Sudeste 0 1011.9 -0.8 64
2018-05-19 16:00:00 20.7 18 Sudeste 28 Sudeste 0 1012.3 -0.8 58
2018-05-19 15:00:00 21.6 13 Sudeste 32 Sudeste 0 1012.4 -0.9 56
2018-05-19 14:00:00 21.4 21 Sudeste 33 Sudeste 0 1012.7 -0.7 56
2018-05-19 13:00:00 21.8 23 Sudeste 33 Sudeste 0 1013.1 -0.1 54
2018-05-19 12:00:00 20.7 22 Sudeste 33 Sudeste 0 1013.3 0.4 58
2018-05-19 11:00:00 21.2 16 Sudeste 25 Sudeste 0 1013.4 1 53
2018-05-19 10:00:00 20.3 11 Sudeste 20 Sudeste 0 1013.2 1.2 58
2018-05-19 09:00:00 19.8 9 Sudeste 17 Este 0 1012.9 1.1 59
2018-05-19 08:00:00 17.2 0 Calma 10 Nordeste 0 1012.4 0.5 65
2018-05-19 07:00:00 15.6 4 Norte 8 Nordeste 0 1012 -0.2 67
2018-05-19 06:00:00 15.7 4 Nordeste 6 Nordeste 0 1011.8 -0.9 67
2018-05-19 05:00:00 15.8 4 Norte 8 Nordeste 0 1011.9 -1.4 68
2018-05-19 04:00:00 16.3 2 Norte 9 Nordeste 0 1012.2 -1 68
2018-05-19 03:00:00 16.8 3 Norte 6 Norte 0 1012.7 -0.4 66
2018-05-19 02:00:00 17.3 3 Nordeste 8 Nordeste 0 1013.3 0.4 65
2018-05-19 01:00:00 17.3 3 Este 6 Este 0 1013.2 0.6 68
2018-05-19 00:00:00 17.6 4 Norte 6 Norte 0 1013.1 1 71
2018-05-18 23:00:00 17.8 4 Noroeste 6 Noroeste 0 1012.9 1 72
2018-05-18 22:00:00 18.4 0 Calma 9 Sur 0 1012.6 0.7 70
2018-05-18 21:00:00 19 4 Sudeste 12 Sudeste 0 1012.1 0.1 67
2018-05-18 20:00:00 19.9 8 Sur 16 Sur 0 1011.9 -0.1 62
2018-05-18 19:00:00 21 7 Sudeste 16 Sur 0 1011.9 -0.5 55
2018-05-18 18:00:00 20.9 9 Sur 21 Sur 0 1012 -0.6 56
2018-05-18 17:00:00 21.2 12 Sur 21 Sudeste 0 1012 -1.1 53
2018-05-18 16:00:00 20.8 11 Sudeste 23 Sudeste 0 1012.4 -1 58
2018-05-18 15:00:00 20.8 13 Sur 27 Sudeste 0 1012.6 -0.8 59
2018-05-18 14:00:00 22.2 14 Sudeste 30 Sudeste 0 1013.1 -0.1 50
2018-05-18 13:00:00 21.5 12 Sudeste 22 Sur 0 1013.4 0.3 51
2018-05-18 12:00:00 21.1 11 Sur 20 Sur 0 1013.4 0.6 56
2018-05-18 11:00:00 20.8 10 Sudeste 18 Sudeste 0 1013.2 0.8 49
2018-05-18 10:00:00 20.1 8 Sudeste 14 Sudeste 0 1013.1 0.9 52
2018-05-18 09:00:00 19.6 6 Sur 11 Sudoeste 0 1012.8 0.9 50
2018-05-18 08:00:00 17 2 Sudoeste 5 Nordeste 0 1012.4 0.7 57
2018-05-18 07:00:00 15.9 3 Nordeste 6 Norte 0 1012.2 0.4 57
2018-05-18 06:00:00 14.8 3 Noroeste 6 Nordeste 0 1011.9 0 61
2018-05-18 05:00:00 15.5 2 Nordeste 8 Nordeste 0 1011.7 -0.4 58
2018-05-18 04:00:00 16.2 5 Nordeste 10 Norte 0 1011.8 -1 56
2018-05-18 03:00:00 16.1 4 Nordeste 9 Norte 0 1011.9 -1.4 62
2018-05-18 02:00:00 16.1 3 Norte 7 Norte 0 1012.1 -0.8 74
2018-05-18 01:00:00 16.8 2 Oeste 9 Norte 0 1012.8 0.3 75
2018-05-18 00:00:00 17.2 4 Este 8 Nordeste 0 1013.3 1.3 75
2018-05-17 23:00:00 17.7 5 Este 8 Este 0 1012.9 1.1 73
2018-05-17 22:00:00 18.1 4 Sudeste 13 Sudeste 0 1012.5 0.9 70
2018-05-17 21:00:00 18.6 8 Este 15 Este 0 1012 0.4 67
2018-05-17 20:00:00 19.4 9 Sudeste 20 Sudeste 0 1011.8 0.2 65
2018-05-17 19:00:00 19.5 11 Sudeste 22 Sudeste 0 1011.6 0.4 63
2018-05-17 18:00:00 19.8 15 Sudeste 33 Sudeste 0 1011.6 0.5 61
2018-05-17 17:00:00 20.6 21 Sudeste 44 Sudeste 0 1011.6 0 55
2018-05-17 16:00:00 21.5 25 Sudeste 40 Sudeste 0 1011.2 -0.4 57
2018-05-17 15:00:00 23.1 24 Sudeste 42 Este 0 1011.1 -0.3 47
2018-05-17 14:00:00 23.2 26 Este 48 Este 0 1011.6 0.6 44
2018-05-17 13:00:00 22.3 22 Este 47 Este 0 1011.6 1 42
2018-05-17 12:00:00 21.9 23 Este 46 Sudeste 0 1011.4 1.2 41
2018-05-17 11:00:00 22.6 23 Este 41 Este 0 1011 1 36
2018-05-17 10:00:00 21.5 20 Este 42 Este 0 1010.6 1 36
2018-05-17 09:00:00 21.3 16 Nordeste 33 Nordeste 0 1010.2 0.2 38
2018-05-17 08:00:00 19.3 10 Nordeste 44 Nordeste 0 1010 -0.4 45
2018-05-17 07:00:00 18.5 17 Nordeste 35 Nordeste 0 1009.6 -1 48
2018-05-17 06:00:00 18.6 13 Nordeste 33 Nordeste 0 1010 -0.8 48
2018-05-17 05:00:00 18.7 10 Nordeste 33 Este 0 1010.4 -1.1 46
2018-05-17 04:00:00 18.8 12 Este 32 Nordeste 0 1010.6 -1.1 42
2018-05-17 03:00:00 19.1 14 Este 32 Nordeste 0 1010.8 -1.1 36
2018-05-17 02:00:00 19.2 15 Este 32 Nordeste 0 1011.5 0.1 34
2018-05-17 01:00:00 19.4 15 Nordeste 33 Este 0 1011.7 0.7 33
2018-05-17 00:00:00 19.7 13 Este 24 Nordeste 0 1011.9 1.4 33
2018-05-16 23:00:00 19.7 11 Nordeste 23 Nordeste 0 1011.4 1 31
2018-05-16 22:00:00 19.8 11 Este 20 Este 0 1011 0.6 31
2018-05-16 21:00:00 20.3 13 Este 30 Este 0 1010.5 0 35
2018-05-16 20:00:00 21.5 14 Este 35 Este 0 1010.4 -0.2 39
2018-05-16 19:00:00 22.3 19 Sudeste 37 Este 0 1010.4 -0.7 32
2018-05-16 18:00:00 22.4 22 Este 44 Este 0 1010.5 -1.2 37
2018-05-16 17:00:00 22.5 21 Sudeste 39 Sudeste 0 1010.6 -1.6 42
2018-05-16 16:00:00 23 22 Sudeste 41 Este 0 1011.1 -1.5 37
2018-05-16 15:00:00 21.9 23 Sudeste 37 Sudeste 0 1011.7 -0.9 44
2018-05-16 14:00:00 22.9 18 Sudeste 35 Este 0 1012.2 -0.3 38
2018-05-16 13:00:00 22.9 20 Sudeste 42 Sudeste 0 1012.6 0 32
2018-05-16 12:00:00 23.9 23 Este 39 Este 0 1012.6 0.3 25
2018-05-16 11:00:00 22.7 14 Este 30 Este 0 1012.5 0.3 26
2018-05-16 10:00:00 20.7 18 Este 29 Sudeste 0 1012.6 0.7 36
2018-05-16 09:00:00 19.1 4 Sudeste 12 Este 0 1012.3 0.5 44
2018-05-16 08:00:00 15.7 0 Calma 6 Norte 0 1012.2 0.3 61
2018-05-16 07:00:00 14.5 5 Norte 10 Nordeste 0 1011.9 -0.1 63
2018-05-16 06:00:00 14.7 5 Nordeste 9 Norte 0 1011.8 -0.5 63
2018-05-16 05:00:00 14.5 0 Calma 7 Nordeste 0 1011.9 -1.2 67
2018-05-16 04:00:00 15.2 5 Norte 12 Nordeste 0 1012 -1.4 65
2018-05-16 03:00:00 15.4 0 Calma 8 Norte 0 1012.3 -1.2 67
2018-05-16 02:00:00 15.7 5 Norte 8 Norte 0 1013.1 -0.4 66
2018-05-16 01:00:00 16.8 4 Nordeste 8 Nordeste 0 1013.4 0.5 64
2018-05-16 00:00:00 17.1 4 Nordeste 9 Este 0 1013.5 1 64
2018-05-15 23:00:00 17.3 6 Este 12 Este 0 1013.5 1.4 62
2018-05-15 22:00:00 17.7 7 Este 15 Este 0 1012.9 0.8 60
2018-05-15 21:00:00 18.2 10 Sudeste 19 Sudeste 0 1012.5 0.2 60
2018-05-15 20:00:00 19.3 12 Sudeste 22 Sudeste 0 1012.1 -0.4 56
2018-05-15 19:00:00 19.5 15 Sudeste 27 Sudeste 0 1012.1 -0.9 58
2018-05-15 18:00:00 20 18 Sudeste 31 Sudeste 0 1012.3 -1.2 48
2018-05-15 17:00:00 21.5 14 Sudeste 30 Este 0 1012.5 -1.2 44
2018-05-15 16:00:00 20.8 17 Sudeste 29 Este 0 1013 -0.9 52
2018-05-15 15:00:00 21.7 19 Sudeste 30 Este 0 1013.5 -0.5 38
2018-05-15 14:00:00 20.6 18 Sudeste 35 Sudeste 0 1013.7 -0.5 43
2018-05-15 13:00:00 21.2 22 Sudeste 34 Sudeste 0 1013.9 -0.4 39
2018-05-15 12:00:00 21 19 Sudeste 32 Sudeste 0 1014 -0.1 49
2018-05-15 11:00:00 21.3 18 Sudeste 30 Sudeste 0 1014.2 0.3 46
2018-05-15 10:00:00 20.8 16 Este 30 Este 0 1014.3 1.1 45
2018-05-15 09:00:00 19.2 4 Sudeste 20 Sudeste 0 1014.1 1.2 43
2018-05-15 08:00:00 15.6 3 Norte 7 Oeste 0 1013.9 1.2 52
2018-05-15 07:00:00 14.1 4 Norte 10 Norte 0 1013.2 0.9 50
2018-05-15 06:00:00 14.6 5 Noroeste 9 Norte 0 1012.9 0.4 44
2018-05-15 05:00:00 15.3 4 Este 9 Este 0 1012.7 -0.3 41
2018-05-15 04:00:00 15.6 6 Nordeste 8 Nordeste 0 1012.3 -1 38
2018-05-15 03:00:00 14.8 0 Calma 6 Nordeste 0 1012.5 -1 43
2018-05-15 02:00:00 16.2 5 Nordeste 12 Nordeste 0 1013 -0.4 37
2018-05-15 01:00:00 16.7 0 Calma 9 Nordeste 0 1013.3 0.3 37
2018-05-15 00:00:00 17.4 5 Nordeste 8 Nordeste 0 1013.5 0.9 36
2018-05-14 23:00:00 18.3 2 Nordeste 6 Noroeste 0 1013.4 0.9 33
2018-05-14 22:00:00 19 5 Noroeste 11 Noroeste 0 1013 0.8 33
2018-05-14 21:00:00 19.1 4 Oeste 17 Oeste 0 1012.6 0.3 32
2018-05-14 20:00:00 20.5 6 Oeste 18 Sudoeste 0 1012.5 -0.2 32
2018-05-14 19:00:00 21.7 8 Oeste 22 Oeste 0 1012.2 -0.9 31
2018-05-14 18:00:00 21.3 9 Sudoeste 19 Sudoeste 0 1012.3 -1.1 42
2018-05-14 17:00:00 21.6 7 Sudoeste 21 Sur 0 1012.7 -0.9 43
2018-05-14 16:00:00 20.8 9 Sudoeste 19 Sudoeste 0 1013.1 -0.7 47
2018-05-14 15:00:00 19.7 6 Sudoeste 19 Sur 0 1013.4 -0.6 53
2018-05-14 14:00:00 20.3 8 Sudoeste 19 Sur 0 1013.6 -0.8 51
2018-05-14 13:00:00 21.2 9 Sur 17 Sudeste 0 1013.8 -0.9 33
2018-05-14 12:00:00 21.8 9 Sudeste 18 Sudeste 0 1014 -0.8 32
2018-05-14 11:00:00 20.5 11 Sudeste 18 Sudeste 0 1014.4 -0.2 39
2018-05-14 10:00:00 21.1 4 Sur 8 Sur 0 1014.7 0.3 30
2018-05-14 09:00:00 18.9 3 Sudeste 6 Este 0 1014.8 0.5 52
2018-05-14 08:00:00 15.2 4 Nordeste 10 Norte 0 1014.6 0.3 65
2018-05-14 07:00:00 12.9 0 Calma 7 Noroeste 0 1014.4 -0.4 61
2018-05-14 06:00:00 13 3 Nordeste 5 Norte 0 1014.3 -0.9 65
2018-05-14 05:00:00 13.1 2 Nordeste 8 Norte 0 1014.3 -1.5 75
2018-05-14 04:00:00 13.4 3 Noroeste 6 Noroeste 0 1014.8 -1.4 80
2018-05-14 03:00:00 14 0 Calma 5 Norte 0 1015.2 -1.3 79
2018-05-14 02:00:00 14.9 3 Norte 7 Norte 0 1015.8 -0.5 78
2018-05-14 01:00:00 16 4 Norte 6 Noroeste 0 1016.2 0.5 77
2018-05-11 20:00:00 20.5 6 Sur 16 Sur 0 1012.6 -1.3 62
2018-05-11 19:00:00 20.9 9 Sur 20 Sudoeste 0 1012.8 -1.5 63
2018-05-11 18:00:00 21.1 12 Sur 19 Sur 0 1013.2 -1.6 62
2018-05-11 17:00:00 21.7 10 Sur 19 Sur 0 1013.9 -1.3 60
2018-05-11 16:00:00 21.3 11 Sur 22 Sur 0 1014.3 -1.6 60
2018-05-11 15:00:00 22 9 Sur 21 Sudeste 0 1014.8 -1.1 55
2018-05-11 14:00:00 21.5 12 Sur 24 Sudeste 0 1015.2 -0.4 53
2018-05-11 13:00:00 21.5 12 Sudeste 22 Sudeste 0 1015.9 0.5 56
2018-05-11 12:00:00 21.5 13 Sudeste 27 Sudeste 0 1015.9 0.6 56
2018-05-11 11:00:00 22 6 Este 21 Este 0 1015.6 0.6 54
2018-05-11 10:00:00 20.7 8 Nordeste 18 Nordeste 0 1015.4 1.1 60
2018-05-11 09:00:00 18.6 4 Este 13 Nordeste 0 1015.3 1.6 76
2018-05-11 08:00:00 15.8 0 Calma 7 Noroeste 0 1015 1.4 83
2018-05-11 07:00:00 15.7 2 Nordeste 8 Norte 0 1014.3 0.4 83
2018-05-11 06:00:00 15.9 5 Norte 8 Norte 0 1013.7 -0.2 82
2018-05-11 05:00:00 16.5 3 Nordeste 7 Nordeste 0 1013.6 -0.7 82
2018-05-11 04:00:00 16.9 3 Nordeste 8 Nordeste 0 1013.9 -0.4 82
2018-05-11 03:00:00 16.6 4 Nordeste 5 Nordeste 0 1013.9 -0.3 82
2018-05-11 02:00:00 16.8 2 Norte 6 Norte 0 1014.3 0.2 81
2018-05-11 01:00:00 17.3 3 Noroeste 9 Oeste 0 1014.3 0.8 80
2018-05-11 00:00:00 17.4 6 Sudoeste 9 Noroeste 0 1014.2 1.9 79
2018-05-10 23:00:00 17.9 5 Nordeste 12 Nordeste 0 1014.1 2.9 77
2018-05-10 22:00:00 17.8 5 Norte 13 Sudoeste 0 1013.5 1.7 79
2018-05-10 21:00:00 18.4 6 Sur 16 Sudoeste 0 1012.3 -0.2 77
2018-05-10 20:00:00 18.6 9 Sudoeste 25 Sudoeste 0.2 1011.2 -0.9 75
2018-05-10 19:00:00 18.4 13 Nordeste 23 Nordeste 2.8 1011.8 -0.1 76
2018-05-10 18:00:00 18.7 12 Este 26 Este 7.8 1012.5 1.5 75
2018-05-10 17:00:00 21.6 17 Este 35 Este 0 1012.1 1.1 64
2018-05-10 16:00:00 21.5 18 Este 37 Este 0 1011.9 1.7 67
2018-05-10 15:00:00 22.7 20 Este 35 Sudeste 0 1011 1.2 63
2018-05-10 14:00:00 22.3 15 Sudeste 26 Este 0 1011 1.6 66
2018-05-10 13:00:00 25.4 10 Sur 20 Sur 0 1010.2 0.9 42
2018-05-10 12:00:00 25.4 8 Sur 13 Sur 0 1009.8 0.9 43
2018-05-10 11:00:00 23.7 7 Sudeste 14 Sudeste 0 1009.4 1.3 55
2018-05-10 10:00:00 23.2 7 Sudeste 15 Nordeste 0 1009.3 2 56
2018-05-10 09:00:00 21.1 7 Este 14 Nordeste 0 1008.9 2.6 65
2018-05-10 08:00:00 19.1 8 Este 15 Este 0 1008.1 2.3 74
2018-05-10 07:00:00 18.9 10 Este 17 Este 0 1007.3 1.8 70
2018-05-10 06:00:00 18.9 5 Este 10 Nordeste 0 1006.3 0.6 69
2018-05-10 05:00:00 21.2 5 Nordeste 22 Noroeste 0 1005.8 -0.3 56
2018-05-10 04:00:00 20.1 9 Norte 16 Noroeste 0 1005.5 -1 65
2018-05-10 03:00:00 18.4 3 Noroeste 11 Noroeste 0 1005.7 -1 75
2018-05-10 02:00:00 18.7 6 Noroeste 9 Noroeste 0 1006.1 -0.7 79
2018-05-10 01:00:00 18.7 4 Noroeste 8 Norte 0 1006.5 0.5 80
2018-05-10 00:00:00 19.1 4 Oeste 9 Sudoeste 0 1006.7 1.2 80
2018-05-09 23:00:00 19.5 4 Sudoeste 10 Oeste 0 1006.8 1.9 80
2018-05-09 22:00:00 19.6 4 Sudeste 36 Este 0 1006 1.2 78
2018-05-09 21:00:00 20.9 6 Sudeste 15 Sudeste 1 1005.5 -0.3 71
2018-05-09 20:00:00 21.9 6 Oeste 12 Oeste 0 1004.9 -1 63
2018-05-09 19:00:00 22.4 7 Sudoeste 13 Sur 0 1004.8 -1.8 60
2018-05-09 18:00:00 22.7 3 Sudeste 18 Sudeste 0 1005.8 -0.9 50
2018-05-09 17:00:00 21.2 5 Este 9 Este 0 1005.9 -1.2 55
2018-05-09 16:00:00 21.2 4 Sur 15 Oeste 0 1006.6 -0.9 62
2018-05-09 15:00:00 22.5 8 Sudoeste 18 Sur 0 1006.7 -1.2 59
2018-05-09 14:00:00 22.5 6 Sur 16 Sudoeste 0 1007.1 -0.6 59
2018-05-09 13:00:00 22 8 Sur 16 Sudeste 0 1007.5 -0.1 66
2018-05-09 12:00:00 22 7 Sudeste 14 Sur 0 1007.9 0.6 63
2018-05-09 11:00:00 22 6 Sudeste 12 Sudeste 0 1007.7 1 63
2018-05-09 10:00:00 20.4 5 Sur 12 Sur 0 1007.6 1.3 74
2018-05-09 09:00:00 19.9 3 Sudeste 6 Sudeste 0 1007.3 0.7 76
2018-05-09 08:00:00 17.8 2 Sudeste 6 Nordeste 0 1006.7 -0.3 86
2018-05-09 07:00:00 16.8 0 Calma 7 Noroeste 0 1006.3 -1 85
2018-05-09 06:00:00 17.6 3 Nordeste 7 Noroeste 0 1006.6 -0.8 85
2018-05-09 05:00:00 17.6 3 Norte 7 Este 0 1007 -0.5 85
2018-05-09 04:00:00 17.8 3 Este 8 Sur 0 1007.3 -0.3 85
2018-05-09 03:00:00 18.1 2 Sudoeste 6 Sur 0 1007.4 -0.4 85
2018-05-09 02:00:00 17.9 0 Calma 5 Este 0 1007.5 -0.4 85
2018-05-09 01:00:00 18 2 Nordeste 8 Nordeste 0 1007.6 0.5 85
2018-05-09 00:00:00 18 4 Nordeste 6 Nordeste 0 1007.8 0.5 84
2018-05-08 23:00:00 18 4 Este 8 Sudoeste 0 1007.9 0.6 83
2018-05-08 22:00:00 18.3 5 Sur 9 Sudoeste 0 1007.1 -0.6 82
2018-05-08 21:00:00 18.7 4 Sudoeste 12 Sudeste 0 1007.3 0.1 81
2018-05-08 20:00:00 18.9 9 Este 21 Norte 1.8 1007.3 0.4 79
2018-05-08 19:00:00 19.4 8 Este 16 Sudeste 0.4 1007.7 0.2 75
2018-05-08 18:00:00 20.6 9 Sudeste 15 Sudeste 0 1007.2 -0.5 64
2018-05-08 17:00:00 22.3 9 Sur 19 Sudoeste 0 1006.9 -1.2 55
2018-05-08 16:00:00 21.3 9 Sudoeste 21 Sur 0 1007.5 -1.3 59
2018-05-08 15:00:00 20.6 10 Sur 21 Sur 0 1007.7 -1.5 64
2018-05-08 14:00:00 20.2 11 Sur 21 Sur 0 1008.1 -1.4 65
2018-05-08 13:00:00 20.5 10 Sur 21 Sudeste 0 1008.8 -1 63
2018-05-08 12:00:00 19.3 10 Sur 17 Sudoeste 0 1009.2 -0.5 66
2018-05-08 11:00:00 19.6 10 Sur 18 Sudoeste 0 1009.5 -0.3 67
2018-05-08 10:00:00 19.1 4 Sur 16 Sudeste 0 1009.8 0.5 67
2018-05-08 09:00:00 17.7 8 Sudeste 14 Sudeste 0 1009.7 0.6 75
2018-05-08 08:00:00 16.8 4 Sur 9 Sur 0 1009.8 0.8 80
2018-05-08 07:00:00 15.5 4 Este 6 Este 0 1009.3 0.2 80
2018-05-08 06:00:00 15.5 4 Este 9 Nordeste 0 1009.1 -0.9 79
2018-05-08 05:00:00 15.2 4 Este 9 Nordeste 0 1009 -2 79
2018-05-08 04:00:00 15.3 5 Oeste 9 Oeste 0 1009.1 -2.3 80
2018-05-08 03:00:00 16 3 Oeste 8 Noroeste 0 1010 -1.4 80
2018-05-08 02:00:00 16.9 5 Noroeste 9 Sur 0 1011 0.2 78
2018-05-08 01:00:00 17.1 3 Sur 10 Sudeste 0 1011.4 1.2 79
2018-05-08 00:00:00 17.4 5 Sudeste 10 Sudeste 0 1011.4 1.3 76
2018-05-07 23:00:00 17.7 2 Sudoeste 6 Sur 0 1010.8 0.7 71
2018-05-07 22:00:00 17.7 3 Noroeste 6 Noroeste 0 1010.2 0.3 72
2018-05-07 21:00:00 18 5 Oeste 12 Oeste 0 1010.1 0.8 71
2018-05-07 20:00:00 18.4 5 Este 15 Sudeste 0 1010.1 0.6 69
2018-05-07 19:00:00 18.9 12 Sudeste 31 Sur 0 1009.9 0 68
2018-05-07 18:00:00 20.2 16 Sudeste 27 Sudeste 0 1009.3 -1.5 62
2018-05-07 17:00:00 20 15 Sudeste 30 Sudeste 0 1009.5 -2 62
2018-05-07 16:00:00 20.7 14 Sudeste 28 Sudeste 0 1009.9 -2.5 61
2018-05-07 15:00:00 20.1 19 Sudeste 31 Sudeste 0 1010.8 -2 64
2018-05-07 14:00:00 21.3 18 Sudeste 33 Sudeste 0 1011.5 -1.5 54
2018-05-07 13:00:00 21.3 15 Sudeste 25 Sudeste 0 1012.4 -0.5 48
2018-05-07 12:00:00 20.5 11 Sur 20 Sur 0 1012.8 0.4 51
2018-05-07 11:00:00 20.8 8 Sur 20 Sur 0 1013 1.4 51
2018-05-07 10:00:00 20.2 6 Sudoeste 14 Sur 0 1012.9 1.8 54
2018-05-07 09:00:00 20.1 3 Sudoeste 10 Sudoeste 0 1012.4 1.2 52
2018-05-07 08:00:00 16.9 0 Calma 10 Norte 0 1011.6 0 60
2018-05-07 07:00:00 16.2 7 Norte 13 Norte 0 1011.1 -0.8 60
2018-05-07 06:00:00 15.3 4 Norte 7 Norte 0 1011.2 -1.2 63
2018-05-07 05:00:00 15.6 3 Noroeste 7 Norte 0 1011.6 -1.7 63
2018-05-07 04:00:00 16.5 4 Nordeste 9 Nordeste 0 1011.9 -1.7 61
2018-05-07 03:00:00 16.5 4 Nordeste 8 Nordeste 0 1012.4 -0.9 62
2018-05-07 02:00:00 16.6 3 Nordeste 6 Nordeste 0 1013.3 0.3 65
2018-05-07 01:00:00 16.1 5 Oeste 9 Noroeste 0 1013.6 1.2 72
2018-05-07 00:00:00 16.7 5 Noroeste 9 Norte 0 1013.3 1.2 74
2018-05-06 23:00:00 17.3 3 Este 10 Este 0 1013 1.1 72
2018-05-06 22:00:00 17.8 6 Este 17 Este 0 1012.4 0.1 67
2018-05-06 21:00:00 18.5 10 Este 25 Este 0 1012.1 -0.5 63
2018-05-06 20:00:00 20.1 13 Este 23 Este 0 1011.9 -0.9 56
2018-05-06 19:00:00 19.4 14 Sudeste 23 Sudeste 0 1012.3 -1 61
2018-05-06 18:00:00 19.8 9 Sudeste 26 Sur 0 1012.6 -0.9 60
2018-05-06 17:00:00 20.8 12 Sudeste 24 Sur 0 1012.8 -0.9 54
2018-05-06 16:00:00 20.6 12 Sudeste 29 Sudeste 0 1013.3 -0.7 55
2018-05-06 15:00:00 19.7 20 Sudeste 33 Sudeste 0 1013.5 -0.8 57
2018-05-06 14:00:00 20.1 16 Sudeste 30 Sudeste 0 1013.7 -0.7 59
2018-05-06 13:00:00 20.1 17 Sudeste 28 Sudeste 0 1014 -0.2 58
2018-05-06 12:00:00 19.9 14 Sudeste 28 Sudeste 0 1014.3 0.5 57
2018-05-06 11:00:00 20 11 Sudeste 23 Sudeste 0 1014.4 1 51
2018-05-06 10:00:00 20.2 8 Sudeste 19 Sur 0 1014.2 1 48
2018-05-06 09:00:00 19.9 3 Sudoeste 7 Norte 0 1013.8 0.7 43
2018-05-06 08:00:00 16.1 2 Norte 7 Nordeste 0 1013.4 0 56
2018-05-06 07:00:00 14.8 4 Norte 8 Norte 0 1013.2 -0.2 58
2018-05-06 06:00:00 15.1 5 Norte 9 Nordeste 0 1013.1 -0.6 57
2018-05-06 05:00:00 15.5 3 Nordeste 5 Nordeste 0 1013.4 -0.5 59
2018-05-06 04:00:00 15.8 3 Norte 7 Noroeste 0 1013.4 -0.4 58
2018-05-06 03:00:00 16.3 4 Norte 7 Norte 0 1013.7 -0.3 63
2018-05-06 02:00:00 16.6 3 Sudeste 5 Norte 0 1013.9 0 72
2018-05-06 01:00:00 16.7 3 Noroeste 6 Noroeste 0 1013.8 0.4 74
2018-05-06 00:00:00 17.4 2 Sudoeste 8 Oeste 0 1014 1.1 68
2018-05-05 23:00:00 17.6 3 Sudeste 7 Sudeste 0 1013.9 1.3 66
2018-05-05 22:00:00 17.9 2 Sudeste 7 Sudoeste 0 1013.4 1.1 65
2018-05-05 21:00:00 18.1 2 Sudoeste 9 Sudoeste 0 1012.9 0.5 58
2018-05-05 20:00:00 19.5 4 Sudeste 12 Sudoeste 0 1012.6 0.4 42
2018-05-05 19:00:00 19.2 6 Sur 15 Sur 0 1012.3 0 54
2018-05-05 18:00:00 18.8 8 Sur 18 Sur 0 1012.4 -0.2 62
2018-05-05 17:00:00 19.8 8 Sudoeste 20 Sudoeste 0 1012.2 -0.7 57
2018-05-05 16:00:00 20.5 12 Sudoeste 22 Sur 0 1012.3 -0.8 51
2018-05-05 15:00:00 20.1 9 Sur 22 Sur 0 1012.6 -0.3 53
2018-05-05 14:00:00 19.9 12 Sur 23 Sudoeste 0 1012.9 0.4 51
2018-05-05 13:00:00 19.2 12 Sur 22 Sur 0 1013.1 1 63
2018-05-05 12:00:00 19.2 12 Sur 25 Sur 0 1012.9 1.2 59
2018-05-05 11:00:00 18.9 10 Sur 18 Sur 0 1012.5 1.2 64
2018-05-05 10:00:00 18.6 10 Sudeste 23 Sudeste 0 1012.1 1 69
2018-05-05 09:00:00 20.7 3 Sudeste 6 Sudeste 0 1011.7 0.2 47
2018-05-05 08:00:00 16.7 3 Oeste 8 Oeste 0 1011.3 -0.4 72
2018-05-05 07:00:00 16.4 6 Noroeste 10 Oeste 0 1011.1 -0.7 76
2018-05-05 06:00:00 16.3 3 Noroeste 5 Noroeste 0 1011.5 -0.6 77
2018-05-05 05:00:00 16.4 3 Noroeste 6 Noroeste 0 1011.7 -0.7 79
2018-05-05 04:00:00 16.4 2 Oeste 7 Oeste 0 1011.8 -0.6 77
2018-05-05 03:00:00 16.5 4 Oeste 6 Oeste 0 1012.1 -0.4 75
2018-05-05 02:00:00 16.3 2 Sudoeste 5 Noroeste 0 1012.4 0.4 76
2018-05-05 01:00:00 16.1 4 Noroeste 6 Noroeste 0 1012.4 1.3 77
2018-05-05 00:00:00 16.2 6 Este 11 Este 0 1012.5 1.9 76
2018-05-04 23:00:00 16.6 6 Este 14 Este 0 1012 2 72
2018-05-04 22:00:00 17 6 Este 13 Este 0 1011.1 1.3 71
2018-05-04 21:00:00 17.2 6 Este 14 Este 0 1010.6 1.5 70
2018-05-04 20:00:00 17.7 5 Sudeste 16 Sudeste 0 1010 1.4 67
2018-05-04 19:00:00 18.8 8 Sur 25 Sudeste 0 1009.8 1.1 61
2018-05-04 18:00:00 18.9 17 Sudeste 27 Sudeste 0 1009.1 0 60
2018-05-04 17:00:00 19.4 18 Sudeste 30 Sudeste 0 1008.6 -0.3 58
2018-05-04 16:00:00 20.5 18 Sudeste 30 Sudeste 0 1008.7 -0.3 55
2018-05-04 15:00:00 19.9 10 Sudeste 28 Sudeste 0 1009.1 0 59
2018-05-04 14:00:00 20.2 15 Sudeste 28 Sudeste 0 1008.9 0.4 54
2018-05-04 13:00:00 20.2 9 Sudoeste 21 Sur 0 1009 1 57
2018-05-04 12:00:00 19.6 11 Sur 24 Sudoeste 0 1009.1 1.3 57
2018-05-04 11:00:00 20 11 Sur 17 Sudoeste 0 1008.5 1.2 50
2018-05-04 10:00:00 20 6 Sudeste 12 Sudeste 0 1008 1.3 39
2018-05-04 09:00:00 17.2 2 Noroeste 7 Norte 0 1007.8 1.4 62
2018-05-04 08:00:00 16.7 2 Noroeste 9 Este 0 1007.3 1 68
2018-05-04 07:00:00 16.9 4 Sudeste 14 Este 0 1006.7 0.6 63
2018-05-04 06:00:00 17 8 Este 16 Este 0 1006.4 0 61
2018-05-04 05:00:00 17.9 6 Este 14 Norte 0 1006.3 -0.4 50
2018-05-04 04:00:00 17.8 7 Norte 12 Norte 0 1006.1 -1 53
2018-05-04 03:00:00 18.9 7 Noroeste 15 Noroeste 0 1006.4 -0.5 50
2018-05-04 02:00:00 18.5 3 Norte 16 Noroeste 0.2 1006.7 -0.1 58
2018-05-04 01:00:00 20.1 8 Noroeste 17 Oeste 0.2 1007.1 0.7 51
2018-05-04 00:00:00 20.4 8 Oeste 16 Noroeste 0 1006.9 0.7 38
2018-05-03 23:00:00 19.4 5 Noroeste 11 Nordeste 0 1006.8 1.2 48
2018-05-03 22:00:00 19.3 3 Sudoeste 8 Sur 0 1006.4 0.7 51
2018-05-03 21:00:00 19.6 0 Calma 17 Sudoeste 0 1006.2 0.6 47
2018-05-03 20:00:00 20.6 7 Sudoeste 27 Sudoeste 0 1005.6 -0.2 39
2018-05-03 19:00:00 20.5 7 Sudoeste 33 Sudoeste 0 1005.7 -0.7 44
2018-05-03 18:00:00 21.1 9 Sudoeste 40 Sudoeste 0 1005.6 -1.5 42
2018-05-03 17:00:00 22.3 19 Sudoeste 40 Sudoeste 0 1005.8 -1.7 34
2018-05-03 16:00:00 22 15 Sudoeste 31 Sur 0 1006.4 -1.7 39
2018-05-03 15:00:00 21.7 13 Sur 32 Sudoeste 0 1007.1 -1.2 39
2018-05-03 14:00:00 22.2 18 Sudoeste 37 Sudoeste 0 1007.5 -1.1 38
2018-05-03 13:00:00 22 17 Sudoeste 32 Sudoeste 0 1008.1 -0.5 40
2018-05-03 12:00:00 25 6 Noroeste 25 Norte 0 1008.3 -0.4 22
2018-05-03 11:00:00 23.3 13 Norte 34 Noroeste 0 1008.6 -0.2 25
2018-05-03 10:00:00 21.9 21 Norte 35 Norte 0 1008.6 -0.1 25
2018-05-03 09:00:00 20.1 9 Noroeste 22 Noroeste 0 1008.7 -0.1 26
2018-05-03 08:00:00 16.8 6 Oeste 23 Noroeste 0 1008.8 -0.3 35
2018-05-03 07:00:00 16.1 13 Noroeste 24 Noroeste 0 1008.7 -0.6 38
2018-05-03 06:00:00 17.4 11 Noroeste 24 Noroeste 0 1008.8 -0.8 33
2018-05-03 05:00:00 16.8 6 Noroeste 30 Noroeste 0 1009.1 -1.2 35
2018-05-03 04:00:00 17.9 18 Noroeste 31 Noroeste 0 1009.3 -1.1 33
2018-05-03 03:00:00 19.1 17 Noroeste 32 Noroeste 0 1009.6 -0.8 30
2018-05-03 02:00:00 17 12 Noroeste 20 Noroeste 0 1010.3 -0.2 36
2018-05-03 01:00:00 17.7 10 Noroeste 22 Noroeste 0 1010.4 0.1 31
2018-05-03 00:00:00 15.1 2 Sudeste 10 Norte 0 1010.4 0.3 47
2018-05-02 23:00:00 16.2 3 Nordeste 6 Norte 0 1010.5 0.8 49
2018-05-02 22:00:00 16.9 0 Calma 9 Oeste 0 1010.3 0.4 45
2018-05-02 21:00:00 17.4 5 Sudoeste 24 Sudoeste 0 1010.1 -0.1 46
2018-05-02 20:00:00 18 10 Sudoeste 33 Sudoeste 0 1009.7 -0.8 49
2018-05-02 19:00:00 19.2 19 Sudoeste 36 Sudoeste 0 1009.9 -1 40
2018-05-02 18:00:00 18.5 19 Sudoeste 37 Sudoeste 0 1010.2 -1 42
2018-05-02 17:00:00 18.8 12 Sudoeste 30 Sudoeste 0 1010.5 -1 50
2018-05-02 16:00:00 19.5 12 Sudoeste 28 Sudoeste 0 1010.9 -0.9 47
2018-05-02 15:00:00 18.8 13 Sudoeste 34 Sur 0 1011.2 -1 47
2018-05-02 14:00:00 18.9 19 Sudoeste 33 Sur 0 1011.5 -0.5 41
2018-05-02 13:00:00 20.3 17 Sudoeste 28 Sudoeste 0 1011.8 -0.3 35
2018-05-02 12:00:00 21 13 Sudoeste 27 Sudoeste 0 1012.2 0.3 28
2018-05-02 11:00:00 20.9 10 Oeste 20 Noroeste 0 1012 0.4 24
2018-05-02 10:00:00 18.7 4 Noroeste 21 Norte 0 1012.1 1 28
2018-05-02 09:00:00 16.3 11 Noroeste 20 Noroeste 0 1011.9 1 32
2018-05-02 08:00:00 12.5 5 Norte 9 Norte 0 1011.6 0.8 45
2018-05-02 07:00:00 11.4 5 Norte 22 Noroeste 0 1011.1 0.2 48
2018-05-02 06:00:00 11.6 13 Noroeste 19 Noroeste 0 1010.9 -0.4 50
2018-05-02 05:00:00 12 12 Noroeste 23 Noroeste 0 1010.8 -0.7 50
2018-05-02 04:00:00 11.7 12 Noroeste 22 Noroeste 0 1010.9 -0.8 53
2018-05-02 03:00:00 12.8 11 Noroeste 19 Norte 0 1011.3 -0.3 49
2018-05-02 02:00:00 11.9 9 Noroeste 13 Noroeste 0 1011.5 0.5 53
2018-05-02 01:00:00 12.7 6 Norte 11 Norte 0 1011.7 1.6 48
2018-05-02 00:00:00 13.9 4 Nordeste 13 Nordeste 0 1011.6 2 41
2018-05-01 23:00:00 13.2 6 Noroeste 17 Norte 0 1011 2 47
2018-05-01 22:00:00 14.4 7 Norte 14 Norte 0 1010.1 0.1 42
2018-05-01 21:00:00 15.4 6 Norte 26 Noroeste 0 1009.6 -0.6 39
2018-05-01 20:00:00 15.8 14 Noroeste 37 Noroeste 0 1009 -0.7 39
2018-05-01 19:00:00 14.5 24 Noroeste 51 Norte 0 1010 0.1 48
2018-05-01 18:00:00 17.9 8 Noroeste 21 Noroeste 0 1010.2 -0.2 29
2018-05-01 17:00:00 18.1 14 Sudoeste 32 Oeste 0 1009.7 -0.7 32
2018-05-01 16:00:00 16.9 14 Sudoeste 29 Sudoeste 0 1009.9 -0.5 44
2018-05-01 15:00:00 16.8 11 Sur 25 Sur 0 1010.4 -0.5 51
2018-05-01 14:00:00 17.3 13 Sur 30 Sudeste 0 1010.4 -0.5 44
2018-05-01 13:00:00 18.1 15 Sudeste 26 Sudeste 0 1010.4 -0.4 35
2018-05-01 12:00:00 17.5 12 Sudeste 22 Sudeste 0 1010.9 0 36
2018-05-01 11:00:00 16.7 11 Sur 19 Sudeste 0 1010.9 0.3 42
2018-05-01 10:00:00 16.6 10 Sudeste 21 Sudeste 0 1010.8 0.6 41
2018-05-01 09:00:00 15.9 7 Noroeste 14 Noroeste 0 1010.9 0.9 36
2018-05-01 08:00:00 12.7 7 Noroeste 18 Norte 0 1010.6 0.5 44
2018-05-01 07:00:00 10.9 4 Noroeste 10 Noroeste 0 1010.2 0.1 54
2018-05-01 06:00:00 12 6 Noroeste 9 Noroeste 0 1010 -0.6 49
2018-05-01 05:00:00 13.3 5 Noroeste 18 Oeste 0 1010.1 -0.7 47
2018-05-01 04:00:00 14.1 4 Oeste 12 Oeste 0 1010.1 -0.9 52
2018-05-01 03:00:00 14.9 5 Oeste 13 Este 0 1010.6 -0.1 55
2018-05-01 02:00:00 14.9 9 Este 23 Este 0 1010.8 0.6 57
2018-05-01 01:00:00 14.8 15 Este 25 Este 0 1011 1 59
2018-05-01 00:00:00 16.2 6 Este 15 Sudeste 0 1010.7 1.5 46
2018-04-30 23:00:00 16.5 9 Sudeste 38 Norte 0 1010.2 1.7 39
2018-04-30 22:00:00 16.2 18 Norte 48 Norte 0 1010 1.7 42
2018-04-30 21:00:00 17 17 Norte 36 Nordeste 0 1009.2 0.9 42
2018-04-30 20:00:00 16.9 5 Oeste 24 Sudoeste 0 1008.5 -0.1 59
2018-04-30 19:00:00 17.3 14 Sudoeste 30 Sudoeste 0 1008.3 -0.7 54
2018-04-30 18:00:00 19 14 Sur 32 Sur 0 1008.3 -1.3 48
2018-04-30 17:00:00 19.9 12 Sudoeste 28 Sur 0 1008.6 -1.6 46
2018-04-30 16:00:00 19.2 15 Sudoeste 29 Sudoeste 0 1009 -1.8 45
2018-04-30 15:00:00 18.6 16 Sur 29 Sur 0 1009.6 -1.5 43
2018-04-30 14:00:00 18.3 12 Sur 23 Sudeste 0 1010.2 -1 47
2018-04-30 13:00:00 18 14 Sudeste 25 Sudeste 0 1010.8 -0.5 53
2018-04-30 12:00:00 18.8 17 Sudeste 36 Este 0 1011.1 -0.5 40
2018-04-30 11:00:00 18.6 17 Sudeste 30 Sudeste 0 1011.2 0 32
2018-04-30 10:00:00 18.7 14 Este 25 Este 0 1011.3 0.4 39
2018-04-30 09:00:00 17.2 7 Este 17 Este 0 1011.6 0.9 37
2018-04-30 08:00:00 13.6 2 Este 7 Noroeste 0 1011.2 0.4 49
2018-04-30 07:00:00 12.3 3 Noroeste 8 Nordeste 0 1010.9 0 48
2018-04-30 06:00:00 12.4 0 Calma 8 Noroeste 0 1010.7 -0.8 51
2018-04-30 05:00:00 13.1 4 Noroeste 8 Noroeste 0 1010.8 -1.3 48
2018-04-30 04:00:00 13.7 5 Noroeste 10 Oeste 0 1010.9 -1.4 46
2018-04-30 03:00:00 14.5 2 Oeste 8 Nordeste 0 1011.5 -0.8 41
2018-04-30 02:00:00 15 2 Norte 9 Norte 0 1012.1 0.3 36
2018-04-30 01:00:00 15.4 3 Noroeste 10 Noroeste 0 1012.3 1.4 34
2018-04-30 00:00:00 17.1 5 Sur 10 Sudeste 0 1012.3 2.5 28
2018-04-29 23:00:00 16.9 3 Noroeste 22 Noroeste 0 1011.8 2.8 29
2018-04-29 22:00:00 18.3 10 Noroeste 26 Oeste 0 1010.9 2.3 25
2018-04-29 21:00:00 19.8 17 Noroeste 38 Noroeste 0 1009.8 1.3 20
2018-04-29 20:00:00 22 19 Noroeste 46 Noroeste 0 1009 0.7 17
2018-04-29 19:00:00 22.6 26 Noroeste 55 Noroeste 0 1008.6 -0.2 14
2018-04-29 18:00:00 23.1 28 Noroeste 57 Noroeste 0 1008.5 -0.6 14
2018-04-29 17:00:00 23 33 Noroeste 63 Noroeste 0 1008.3 -1 14
2018-04-29 16:00:00 23.2 31 Noroeste 60 Noroeste 0 1008.8 -0.5 16
2018-04-29 15:00:00 23 30 Noroeste 63 Noroeste 0 1009.1 -0.2 15
2018-04-29 14:00:00 22.7 37 Oeste 68 Oeste 0 1009.3 0.4 15
2018-04-29 13:00:00 21.9 29 Noroeste 56 Noroeste 0 1009.3 1 19
2018-04-29 12:00:00 21 33 Oeste 61 Noroeste 0 1009.3 1.5 19
2018-04-29 11:00:00 19.8 30 Oeste 65 Oeste 0 1008.9 2.2 23
2018-04-29 10:00:00 18.4 32 Oeste 63 Noroeste 0 1008.3 2.5 26
2018-04-29 09:00:00 16.5 32 Noroeste 61 Noroeste 0 1007.8 2.7 32
2018-04-29 08:00:00 15.6 25 Noroeste 58 Noroeste 0 1006.7 2.6 37
2018-04-29 07:00:00 15.2 11 Oeste 36 Noroeste 0 1005.8 2.1 38
2018-04-29 06:00:00 16 19 Oeste 36 Oeste 0 1005.1 1.3 33
2018-04-29 05:00:00 16.4 17 Noroeste 33 Noroeste 0 1004.1 0.2 33
2018-04-29 04:00:00 16 20 Noroeste 34 Oeste 0 1003.7 -0.6 47
2018-04-29 03:00:00 17.2 13 Sudoeste 48 Sudoeste 0 1003.8 -0.1 52
2018-04-29 02:00:00 16.9 15 Sudoeste 40 Sudoeste 0 1003.9 0.5 55
2018-04-29 01:00:00 17.2 18 Sudoeste 42 Sudoeste 0 1004.3 2 58
2018-04-29 00:00:00 20.9 14 Sudoeste 35 Oeste 0 1003.9 2.2 32
2018-04-28 23:00:00 20.7 12 Oeste 37 Oeste 0 1003.4 1.8 30
2018-04-28 22:00:00 19.9 17 Sudoeste 46 Oeste 0 1002.3 0.2 46
2018-04-28 21:00:00 20.4 20 Oeste 46 Oeste 0 1001.7 -1.4 45
2018-04-28 20:00:00 22 14 Oeste 37 Oeste 0 1001.6 -2.2 40
2018-04-28 19:00:00 23 13 Sudoeste 33 Sudoeste 0 1002.1 -2.8 37
2018-04-28 18:00:00 23.6 20 Sudoeste 41 Sur 0 1003.1 -2.6 32
2018-04-28 17:00:00 22.9 6 Sudeste 20 Sudeste 0 1003.8 -2.5 42
2018-04-28 16:00:00 22.6 7 Sudeste 23 Sudeste 0 1004.9 -2.3 52
2018-04-28 15:00:00 21 12 Sudeste 23 Sudeste 0 1005.7 -1.7 64
2018-04-28 14:00:00 21.4 8 Sudeste 20 Sur 0 1006.3 -0.9 61
2018-04-28 13:00:00 20.7 9 Sudeste 17 Sur 0 1007.2 0 66
2018-04-28 12:00:00 21.3 7 Sur 15 Sur 0 1007.4 0.2 61
2018-04-28 11:00:00 21.3 8 Sur 13 Sur 0 1007.2 0.1 58
2018-04-28 10:00:00 22.1 4 Sur 8 Sur 0 1007.2 0.7 57
2018-04-28 09:00:00 18.8 0 Calma 8 Norte 0 1007.2 0.6 76
2018-04-28 08:00:00 15.8 0 Calma 7 Nordeste 0 1007.1 0.6 82
2018-04-28 07:00:00 15.7 4 Nordeste 7 Norte 0 1006.5 -0.1 83
2018-04-28 06:00:00 15.7 5 Norte 12 Sudeste 0 1006.6 -0.4 83
2018-04-28 05:00:00 16.2 5 Este 10 Este 0 1006.5 -1 81
2018-04-28 04:00:00 16.5 2 Norte 5 Noroeste 0 1006.6 -1.3 81
2018-04-28 03:00:00 17.2 3 Este 6 Norte 0 1007 -1.3 80
2018-04-28 02:00:00 17.6 3 Noroeste 5 Sudoeste 0 1007.5 -0.7 78
2018-04-28 01:00:00 18 3 Oeste 8 Noroeste 0 1007.9 -0.2 77
2018-04-28 00:00:00 18.5 3 Este 11 Sudeste 0 1008.3 1 75
2018-04-27 23:00:00 18.6 4 Sur 19 Este 0 1008.2 1 72
2018-04-27 22:00:00 18.9 11 Este 17 Este 0 1008.1 0 71
2018-04-27 21:00:00 20.4 5 Sudeste 12 Sudeste 0 1007.3 -0.4 64
2018-04-27 20:00:00 21.4 6 Sudeste 10 Sudeste 0 1007.2 -0.4 57
2018-04-27 19:00:00 21.7 6 Sudeste 26 Sudeste 0 1008.1 -0.2 58
2018-04-27 18:00:00 23.8 10 Sudeste 21 Sur 0 1007.7 -1.1 51
2018-04-27 17:00:00 23.6 8 Sur 18 Sudoeste 0 1007.6 -2.1 51
2018-04-27 16:00:00 22.5 6 Sudoeste 18 Sur 0 1008.3 -1.9 56
2018-04-27 15:00:00 22 7 Sudoeste 18 Sudoeste 0 1008.8 -1.5 58
2018-04-27 14:00:00 21.2 8 Sur 17 Sur 0 1009.7 -0.7 61
2018-04-27 13:00:00 21.1 5 Sudeste 16 Sur 0 1010.2 -0.3 56
2018-04-27 12:00:00 20.3 8 Sur 17 Sur 0 1010.3 -0.1 63
2018-04-27 11:00:00 19.3 6 Sur 13 Sur 0 1010.4 0.1 67
2018-04-27 10:00:00 18.9 6 Sudeste 16 Sur 0 1010.5 0.5 68
2018-04-27 09:00:00 16.9 5 Este 11 Este 0 1010.4 0 80
2018-04-27 08:00:00 14.4 0 Calma 9 Este 0 1010.3 -0.6 83
2018-04-27 07:00:00 14.4 4 Este 8 Nordeste 0 1010 -1.2 82
2018-04-27 06:00:00 14.9 2 Nordeste 6 Norte 0 1010.4 -1.9 81
2018-04-27 05:00:00 14.6 3 Nordeste 8 Sudeste 0 1010.9 -2 82
2018-04-27 04:00:00 14.9 3 Este 6 Nordeste 0 1011.2 -2.3 80
2018-04-27 03:00:00 14.7 2 Norte 9 Sur 0 1012.3 -1.6 81
2018-04-27 02:00:00 15.2 0 Calma 5 Noroeste 0 1012.9 -1.2 80
2018-04-27 01:00:00 15.3 3 Oeste 8 Noroeste 0 1013.5 -0.4 79
2018-04-27 00:00:00 15.8 4 Oeste 12 Oeste 0 1013.9 0.2 78
2018-04-26 23:00:00 16 7 Noroeste 13 Noroeste 0 1014.1 0.6 78
2018-04-26 22:00:00 16.3 5 Noroeste 10 Oeste 0 1013.9 0.3 76
2018-04-26 21:00:00 17 5 Oeste 9 Oeste 0 1013.7 0.2 71
2018-04-26 20:00:00 17.8 6 Sudoeste 18 Sudeste 0 1013.5 0.4 65
2018-04-26 19:00:00 18.6 9 Sudeste 24 Este 0 1013.6 0.1 64
2018-04-26 18:00:00 19 13 Sudeste 26 Sudeste 0 1013.5 -0.4 65
2018-04-26 17:00:00 20.7 8 Sudeste 20 Este 0 1013.1 -0.9 59
2018-04-26 16:00:00 19.2 14 Sudeste 24 Este 0 1013.5 -0.4 68
2018-04-26 15:00:00 19.4 14 Este 22 Este 0 1013.9 0.2 65
2018-04-26 14:00:00 18.8 12 Este 25 Sudeste 0 1014 0.7 70
2018-04-26 13:00:00 19.6 13 Sudeste 22 Este 0 1013.9 0.9 64
2018-04-26 12:00:00 19.3 4 Sudeste 10 Sudeste 0 1013.7 0.9 64
2018-04-26 11:00:00 17.4 3 Sudeste 8 Noroeste 0.4 1013.3 1.9 77
2018-04-26 10:00:00 17.2 2 Noroeste 9 Sudeste 0.6 1013 2.4 81
2018-04-26 09:00:00 17.5 2 Sur 8 Oeste 0.6 1012.8 2.7 82
2018-04-26 08:00:00 17.3 2 Nordeste 8 Este 1.4 1011.4 1.2 80
2018-04-26 07:00:00 17.9 3 Noroeste 16 Sur 0.2 1010.6 -0.1 73
2018-04-26 06:00:00 18.9 4 Sudeste 14 Noroeste 0 1010.1 -0.9 66
2018-04-26 05:00:00 18.9 6 Noroeste 16 Noroeste 0 1010.2 -1.9 66
2018-04-26 04:00:00 19.8 4 Norte 16 Nordeste 0 1010.7 -1.7 60
2018-04-26 03:00:00 18.5 5 Noroeste 11 Noroeste 0 1011 -1.3 71
2018-04-26 02:00:00 18.2 3 Nordeste 7 Noroeste 0 1012.1 -0.6 78
2018-04-26 01:00:00 18.7 3 Oeste 11 Sudeste 0.2 1012.4 0.3 76
2018-04-26 00:00:00 18.3 5 Noroeste 9 Noroeste 0 1012.3 0.8 78
2018-04-25 23:00:00 18.7 5 Sudeste 8 Este 0 1012.7 1.5 74
2018-04-25 22:00:00 18.5 2 Noroeste 10 Noroeste 0 1012.1 1.2 74
2018-04-25 21:00:00 18.7 4 Oeste 14 Sudeste 0 1011.5 0.7 70
2018-04-25 20:00:00 19.7 10 Sur 20 Sudeste 0 1011.2 0.3 64
2018-04-25 19:00:00 20.5 10 Sudoeste 22 Sudeste 0 1010.9 -0.4 64
2018-04-25 18:00:00 21.9 10 Este 26 Sudoeste 0 1010.8 -1.3 56
2018-04-25 17:00:00 20.4 4 Oeste 12 Sudoeste 0 1010.9 -1.6 67
2018-04-25 16:00:00 19.3 4 Sur 12 Oeste 0 1011.3 -1.7 70
2018-04-25 15:00:00 17.7 5 Oeste 30 Nordeste 0 1012.1 -0.8 73
2018-04-25 14:00:00 17.5 8 Sur 35 Este 0.6 1012.5 -0.7 68
2018-04-25 13:00:00 16.4 20 Este 36 Este 1.4 1013 0.3 74
2018-04-25 12:00:00 16.3 7 Noroeste 30 Este 5 1012.9 0.9 81
2018-04-25 11:00:00 17.5 6 Este 28 Nordeste 0.4 1013.2 1.6 70
2018-04-25 10:00:00 17.7 11 Este 27 Este 0 1012.7 2.1 70
2018-04-25 09:00:00 17.2 5 Oeste 15 Noroeste 0 1012 2.8 79
2018-04-25 08:00:00 17.2 6 Noroeste 17 Sur 0.2 1011.6 2.1 74
2018-04-25 07:00:00 17.8 6 Este 37 Nordeste 1.4 1010.6 1.5 68
2018-04-25 06:00:00 21.7 17 Nordeste 51 Nordeste 0 1009.2 -0.3 42
2018-04-25 05:00:00 22.3 18 Nordeste 46 Nordeste 0 1009.5 -1.5 32
2018-04-25 04:00:00 21.9 7 Nordeste 46 Nordeste 0 1009.1 -4.5 33
2018-04-25 03:00:00 21.7 23 Este 54 Nordeste 0 1009.5 -2.4 33
2018-04-25 02:00:00 21.1 13 Este 21 Este 0 1011 -0.2 35
2018-04-25 01:00:00 21.4 15 Sudeste 36 Este 0 1013.6 3.3 40
2018-04-25 00:00:00 22.6 18 Este 49 Este 0 1011.9 2.5 31
2018-04-24 23:00:00 22.6 25 Este 43 Este 0 1011.2 2.7 31
2018-04-24 22:00:00 23.2 19 Nordeste 38 Nordeste 0 1010.3 1.5 30
2018-04-24 21:00:00 23.8 8 Nordeste 27 Este 0 1009.4 0.4 31
2018-04-24 20:00:00 25.2 8 Nordeste 40 Este 0 1008.5 -0.7 30
2018-04-24 19:00:00 26.1 21 Este 47 Nordeste 0 1008.8 -0.8 30
2018-04-24 18:00:00 25.9 26 Este 49 Este 0 1009 -1.3 33
2018-04-24 17:00:00 26.1 32 Este 57 Este 0 1009.2 -1.5 33
2018-04-24 16:00:00 27 34 Este 56 Este 0 1009.6 -1.6 29
2018-04-24 15:00:00 26.5 29 Este 58 Este 0 1010.3 -1.2 29
2018-04-24 14:00:00 26.8 32 Este 66 Este 0 1010.7 -0.9 29
2018-04-24 13:00:00 26.5 34 Este 72 Este 0 1011.2 -0.3 28
2018-04-24 12:00:00 26.3 28 Este 50 Este 0 1011.5 0.3 28
2018-04-24 11:00:00 26 22 Este 47 Este 0 1011.6 1.4 25
2018-04-24 10:00:00 24.7 18 Este 38 Este 0 1011.5 2.5 22
2018-04-24 09:00:00 23.4 6 Sudeste 29 Este 0 1011.2 4.2 23
2018-04-24 08:00:00 22.1 15 Este 38 Nordeste 0 1010.2 2.9 22
2018-04-24 07:00:00 22.3 19 Este 58 Este 0 1009 1.5 21
2018-04-24 06:00:00 23.6 30 Este 71 Nordeste 0 1007 -1.6 16
2018-04-24 05:00:00 22.9 31 Nordeste 60 Nordeste 0 1007.3 -2.9 20
2018-04-24 04:00:00 23 31 Nordeste 64 Nordeste 0 1007.5 -4 17
2018-04-24 03:00:00 22.9 28 Nordeste 53 Nordeste 0 1008.6 -3.7 19
2018-04-24 02:00:00 22.8 23 Nordeste 55 Nordeste 0 1010.2 0.7 22
2018-04-24 01:00:00 22.8 17 Nordeste 45 Nordeste 0 1011.5 2.1 25
2018-04-24 00:00:00 22.6 24 Este 73 Este 0 1012.3 1.5 29